createdAt,value
2019-05-20T00:00:11.968Z,998.63
2019-05-20T00:00:47.356Z,998.61
2019-05-20T00:01:22.748Z,998.62
2019-05-20T00:01:58.024Z,998.64
2019-05-20T00:02:33.332Z,998.65
2019-05-20T00:03:08.701Z,998.65
2019-05-20T00:03:43.733Z,998.67
2019-05-20T00:04:19.318Z,998.65
2019-05-20T00:04:54.326Z,998.65
2019-05-20T00:05:29.730Z,998.65
2019-05-20T00:06:05.274Z,998.67
2019-05-20T00:06:40.836Z,998.65
2019-05-20T00:07:16.031Z,998.64
2019-05-20T00:07:51.339Z,998.66
2019-05-20T00:08:26.554Z,998.64
2019-05-20T00:09:02.237Z,998.63
2019-05-20T00:09:37.412Z,998.64
2019-05-20T00:10:12.589Z,998.61
2019-05-20T00:10:48.020Z,998.63
2019-05-20T00:11:23.106Z,998.62
2019-05-20T00:11:58.623Z,998.61
2019-05-20T00:12:33.809Z,998.57
2019-05-20T00:13:09.198Z,998.59
2019-05-20T00:13:44.878Z,998.61
2019-05-20T00:14:20.113Z,998.59
2019-05-20T00:14:55.384Z,998.60
2019-05-20T00:15:30.581Z,998.54
2019-05-20T00:16:05.695Z,998.59
2019-05-20T00:16:41.073Z,998.55
2019-05-20T00:17:16.679Z,998.55
2019-05-20T00:17:51.946Z,998.55
2019-05-20T00:18:27.250Z,998.55
2019-05-20T00:19:02.533Z,998.54
2019-05-20T00:19:37.668Z,998.56
2019-05-20T00:20:12.849Z,998.55
2019-05-20T00:20:48.251Z,998.52
2019-05-20T00:21:23.629Z,998.54
2019-05-20T00:21:58.844Z,998.54
2019-05-20T00:22:34.336Z,998.56
2019-05-20T00:23:09.635Z,998.53
2019-05-20T00:23:44.805Z,998.53
2019-05-20T00:24:19.913Z,998.52
2019-05-20T00:24:55.518Z,998.53
2019-05-20T00:25:31.421Z,998.53
2019-05-20T00:26:06.608Z,998.51
2019-05-20T00:26:41.818Z,998.51
2019-05-20T00:27:16.986Z,998.50
2019-05-20T00:27:52.386Z,998.50
2019-05-20T00:28:27.857Z,998.53
2019-05-20T00:29:03.069Z,998.51
2019-05-20T00:29:38.658Z,998.48
2019-05-20T00:30:14.011Z,998.51
2019-05-20T00:30:49.481Z,998.50
2019-05-20T00:31:24.482Z,998.53
2019-05-20T00:31:59.769Z,998.53
2019-05-20T00:32:41.242Z,998.52
2019-05-20T00:33:10.064Z,998.53
2019-05-20T00:33:45.449Z,998.53
2019-05-20T00:34:34.176Z,998.51
2019-05-20T00:34:56.241Z,998.51
2019-05-20T00:35:31.484Z,998.51
2019-05-20T00:36:06.961Z,998.47
2019-05-20T00:36:42.467Z,998.49
2019-05-20T00:37:17.846Z,998.47
2019-05-20T00:37:53.258Z,998.45
2019-05-20T00:38:28.431Z,998.46
2019-05-20T00:39:03.835Z,998.43
2019-05-20T00:39:39.212Z,998.47
2019-05-20T00:40:14.621Z,998.47
2019-05-20T00:40:49.940Z,998.45
2019-05-20T00:41:25.256Z,998.45
2019-05-20T00:42:00.533Z,998.47
2019-05-20T00:42:35.848Z,998.45
2019-05-20T00:43:11.360Z,998.46
2019-05-20T00:43:46.748Z,998.47
2019-05-20T00:44:22.280Z,998.45
2019-05-20T00:44:57.649Z,998.47
2019-05-20T00:45:33.018Z,998.44
2019-05-20T00:46:08.339Z,998.42
2019-05-20T00:46:43.621Z,998.43
2019-05-20T00:47:19.023Z,998.41
2019-05-20T00:47:54.306Z,998.40
2019-05-20T00:48:29.701Z,998.42
2019-05-20T00:49:04.818Z,998.40
2019-05-20T00:49:40.498Z,998.38
2019-05-20T00:50:15.611Z,998.38
2019-05-20T00:50:51.113Z,998.36
2019-05-20T00:51:26.642Z,998.39
2019-05-20T00:52:02.230Z,998.35
2019-05-20T00:52:37.626Z,998.38
2019-05-20T00:53:13.209Z,998.34
2019-05-20T00:53:48.610Z,998.35
2019-05-20T00:54:23.906Z,998.37
2019-05-20T00:54:59.411Z,998.35
2019-05-20T00:55:34.802Z,998.35
2019-05-20T00:56:10.211Z,998.35
2019-05-20T00:56:45.337Z,998.36
2019-05-20T00:57:20.844Z,998.36
2019-05-20T00:57:56.118Z,998.32
2019-05-20T00:58:31.560Z,998.34
2019-05-20T00:59:06.997Z,998.32
2019-05-20T00:59:42.699Z,998.33
2019-05-20T01:00:18.172Z,998.31
2019-05-20T01:00:53.579Z,998.32
2019-05-20T01:01:28.848Z,998.30
2019-05-20T01:02:04.293Z,998.31
2019-05-20T01:02:39.678Z,998.32
2019-05-20T01:03:15.100Z,998.34
2019-05-20T01:03:50.479Z,998.29
2019-05-20T01:04:25.893Z,998.33
2019-05-20T01:05:01.172Z,998.33
2019-05-20T01:05:36.289Z,998.30
2019-05-20T01:06:11.689Z,998.32
2019-05-20T01:06:46.928Z,998.30
2019-05-20T01:07:22.345Z,998.31
2019-05-20T01:07:57.650Z,998.32
2019-05-20T01:08:32.825Z,998.37
2019-05-20T01:09:08.044Z,998.37
2019-05-20T01:09:43.535Z,998.34
2019-05-20T01:10:18.949Z,998.35
2019-05-20T01:10:54.534Z,998.38
2019-05-20T01:11:29.659Z,998.39
2019-05-20T01:12:05.336Z,998.38
2019-05-20T01:12:40.691Z,998.38
2019-05-20T01:13:16.073Z,998.37
2019-05-20T01:13:51.484Z,998.37
2019-05-20T01:14:26.777Z,998.35
2019-05-20T01:15:02.179Z,998.32
2019-05-20T01:15:37.456Z,998.34
2019-05-20T01:16:12.787Z,998.34
2019-05-20T01:16:48.077Z,998.34
2019-05-20T01:17:23.585Z,998.36
2019-05-20T01:17:58.801Z,998.30
2019-05-20T01:18:34.625Z,998.36
2019-05-20T01:19:09.908Z,998.37
2019-05-20T01:19:45.144Z,998.40
2019-05-20T01:20:20.230Z,998.33
2019-05-20T01:20:55.445Z,998.36
2019-05-20T01:21:30.317Z,998.37
2019-05-20T01:22:06.050Z,998.33
2019-05-20T01:22:41.215Z,998.35
2019-05-20T01:23:16.450Z,998.33
2019-05-20T01:23:51.948Z,998.37
2019-05-20T01:24:27.161Z,998.36
2019-05-20T01:25:02.538Z,998.36
2019-05-20T01:25:37.661Z,998.35
2019-05-20T01:26:12.935Z,998.38
2019-05-20T01:26:48.348Z,998.37
2019-05-20T01:27:23.637Z,998.37
2019-05-20T01:27:58.872Z,998.37
2019-05-20T01:28:34.275Z,998.38
2019-05-20T01:29:09.497Z,998.38
2019-05-20T01:29:44.871Z,998.41
2019-05-20T01:30:20.100Z,998.39
2019-05-20T01:30:55.680Z,998.43
2019-05-20T01:31:31.079Z,998.47
2019-05-20T01:32:06.372Z,998.46
2019-05-20T01:32:41.677Z,998.49
2019-05-20T01:33:17.058Z,998.49
2019-05-20T01:33:52.412Z,998.52
2019-05-20T01:34:27.700Z,998.52
2019-05-20T01:35:02.916Z,998.55
2019-05-20T01:35:38.308Z,998.52
2019-05-20T01:36:13.547Z,998.55
2019-05-20T01:36:48.700Z,998.52
2019-05-20T01:37:23.914Z,998.56
2019-05-20T01:37:59.184Z,998.56
2019-05-20T01:38:34.796Z,998.54
2019-05-20T01:39:10.120Z,998.56
2019-05-20T01:39:45.331Z,998.54
2019-05-20T01:40:21.009Z,998.53
2019-05-20T01:40:56.120Z,998.55
2019-05-20T01:41:31.397Z,998.54
2019-05-20T01:42:06.810Z,998.53
2019-05-20T01:42:42.189Z,998.55
2019-05-20T01:43:17.509Z,998.50
2019-05-20T01:43:53.083Z,998.49
2019-05-20T01:44:28.436Z,998.51
2019-05-20T01:45:04.034Z,998.55
2019-05-20T01:45:39.167Z,998.52
2019-05-20T01:46:14.235Z,998.51
2019-05-20T01:46:49.751Z,998.51
2019-05-20T01:47:25.112Z,998.55
2019-05-20T01:48:00.651Z,998.56
2019-05-20T01:48:35.955Z,998.59
2019-05-20T01:49:11.486Z,998.57
2019-05-20T01:49:46.727Z,998.59
2019-05-20T01:50:21.930Z,998.59
2019-05-20T01:50:57.412Z,998.60
2019-05-20T01:51:32.627Z,998.61
2019-05-20T01:52:07.903Z,998.58
2019-05-20T01:52:43.327Z,998.60
2019-05-20T01:53:18.490Z,998.58
2019-05-20T01:53:53.618Z,998.61
2019-05-20T01:54:28.898Z,998.63
2019-05-20T01:55:04.154Z,998.61
2019-05-20T01:55:42.584Z,998.64
2019-05-20T01:56:17.801Z,998.61
2019-05-20T01:56:53.006Z,998.63
2019-05-20T01:57:28.213Z,998.65
2019-05-20T01:58:03.518Z,998.65
2019-05-20T01:58:39.700Z,998.64
2019-05-20T01:59:14.433Z,998.66
2019-05-20T01:59:49.834Z,998.63
2019-05-20T02:00:25.047Z,998.66
2019-05-20T02:01:00.382Z,998.64
2019-05-20T02:01:35.760Z,998.68
2019-05-20T02:02:11.370Z,998.69
2019-05-20T02:02:46.749Z,998.68
2019-05-20T02:03:31.113Z,998.69
2019-05-20T02:03:57.641Z,998.69
2019-05-20T02:04:33.206Z,998.70
2019-05-20T02:05:08.480Z,998.67
2019-05-20T02:05:44.012Z,998.71
2019-05-20T02:06:19.583Z,998.73
2019-05-20T02:06:54.696Z,998.73
2019-05-20T02:07:30.277Z,998.69
2019-05-20T02:08:05.579Z,998.72
2019-05-20T02:08:40.580Z,998.72
2019-05-20T02:09:16.487Z,998.72
2019-05-20T02:09:51.996Z,998.70
2019-05-20T02:10:27.300Z,998.72
2019-05-20T02:11:02.630Z,998.70
2019-05-20T02:11:38.038Z,998.75
2019-05-20T02:12:13.511Z,998.73
2019-05-20T02:12:48.727Z,998.71
2019-05-20T02:13:24.004Z,998.73
2019-05-20T02:13:59.508Z,998.74
2019-05-20T02:14:35.003Z,998.73
2019-05-20T02:15:10.330Z,998.73
2019-05-20T02:15:45.914Z,998.71
2019-05-20T02:16:21.144Z,998.71
2019-05-20T02:16:56.530Z,998.75
2019-05-20T02:17:31.564Z,998.76
2019-05-20T02:18:07.264Z,998.75
2019-05-20T02:18:42.585Z,998.75
2019-05-20T02:19:17.847Z,998.76
2019-05-20T02:19:53.169Z,998.75
2019-05-20T02:20:28.149Z,998.74
2019-05-20T02:21:03.548Z,998.75
2019-05-20T02:21:38.871Z,998.72
2019-05-20T02:22:14.168Z,998.72
2019-05-20T02:22:49.551Z,998.75
2019-05-20T02:23:24.772Z,998.72
2019-05-20T02:24:00.061Z,998.72
2019-05-20T02:24:35.475Z,998.73
2019-05-20T02:25:10.658Z,998.72
2019-05-20T02:25:46.774Z,998.67
2019-05-20T02:26:20.781Z,998.68
2019-05-20T02:26:56.123Z,998.69
2019-05-20T02:27:31.494Z,998.69
2019-05-20T02:28:06.793Z,998.67
2019-05-20T02:28:42.169Z,998.66
2019-05-20T02:29:17.282Z,998.66
2019-05-20T02:29:52.687Z,998.67
2019-05-20T02:30:28.288Z,998.69
2019-05-20T02:31:03.662Z,998.67
2019-05-20T02:31:38.989Z,998.68
2019-05-20T02:32:14.693Z,998.69
2019-05-20T02:32:50.002Z,998.66
2019-05-20T02:33:25.478Z,998.66
2019-05-20T02:34:00.986Z,998.69
2019-05-20T02:34:36.280Z,998.71
2019-05-20T02:35:11.611Z,998.68
2019-05-20T02:35:46.869Z,998.70
2019-05-20T02:36:22.182Z,998.66
2019-05-20T02:36:57.364Z,998.67
2019-05-20T02:37:32.537Z,998.66
2019-05-20T02:38:07.824Z,998.70
2019-05-20T02:38:43.227Z,998.66
2019-05-20T02:39:18.621Z,998.68
2019-05-20T02:40:14.047Z,998.64
2019-05-20T02:40:49.021Z,998.62
2019-05-20T02:41:24.643Z,998.60
2019-05-20T02:42:00.138Z,998.62
2019-05-20T02:42:35.579Z,998.57
2019-05-20T02:43:11.261Z,998.59
2019-05-20T02:43:46.575Z,998.56
2019-05-20T02:44:23.103Z,998.55
2019-05-20T02:44:58.514Z,998.54
2019-05-20T02:45:33.896Z,998.52
2019-05-20T02:46:09.328Z,998.54
2019-05-20T02:46:44.409Z,998.51
2019-05-20T02:47:19.543Z,998.47
2019-05-20T02:47:54.890Z,998.48
2019-05-20T02:48:30.233Z,998.46
2019-05-20T02:49:05.588Z,998.46
2019-05-20T02:49:41.005Z,998.45
2019-05-20T02:50:17.599Z,998.44
2019-05-20T02:50:53.117Z,998.49
2019-05-20T02:51:28.914Z,998.46
2019-05-20T02:52:04.029Z,998.47
2019-05-20T02:52:39.410Z,998.48
2019-05-20T02:53:14.841Z,998.51
2019-05-20T02:53:50.229Z,998.50
2019-05-20T02:54:25.652Z,998.51
2019-05-20T02:55:01.047Z,998.57
2019-05-20T02:55:36.353Z,998.57
2019-05-20T02:56:11.700Z,998.57
2019-05-20T02:56:47.244Z,998.60
2019-05-20T02:57:22.896Z,998.64
2019-05-20T02:57:58.065Z,998.65
2019-05-20T02:58:33.410Z,998.63
2019-05-20T02:59:08.594Z,998.69
2019-05-20T02:59:43.877Z,998.65
2019-05-20T03:00:19.382Z,998.65
2019-05-20T03:00:54.677Z,998.64
2019-05-20T03:01:29.882Z,998.66
2019-05-20T03:02:05.158Z,998.66
2019-05-20T03:02:40.270Z,998.68
2019-05-20T03:03:15.678Z,998.66
2019-05-20T03:04:08.002Z,998.64
2019-05-20T03:04:26.424Z,998.66
2019-05-20T03:05:01.708Z,998.65
2019-05-20T03:05:37.050Z,998.67
2019-05-20T03:06:12.252Z,998.67
2019-05-20T03:06:47.540Z,998.67
2019-05-20T03:07:22.976Z,998.63
2019-05-20T03:07:58.365Z,998.70
2019-05-20T03:08:33.484Z,998.69
2019-05-20T03:09:11.909Z,998.67
2019-05-20T03:09:44.109Z,998.66
2019-05-20T03:10:19.681Z,998.68
2019-05-20T03:10:54.901Z,998.68
2019-05-20T03:11:30.303Z,998.67
2019-05-20T03:12:05.639Z,998.67
2019-05-20T03:12:40.913Z,998.68
2019-05-20T03:13:16.421Z,998.71
2019-05-20T03:13:51.614Z,998.69
2019-05-20T03:14:26.761Z,998.72
2019-05-20T03:15:02.135Z,998.73
2019-05-20T03:15:37.445Z,998.70
2019-05-20T03:16:15.556Z,998.72
2019-05-20T03:16:47.830Z,998.69
2019-05-20T03:17:23.414Z,998.73
2019-05-20T03:17:59.225Z,998.71
2019-05-20T03:18:34.832Z,998.75
2019-05-20T03:19:10.122Z,998.78
2019-05-20T03:19:45.447Z,998.79
2019-05-20T03:20:20.753Z,998.76
2019-05-20T03:20:55.856Z,998.79
2019-05-20T03:21:31.243Z,998.81
2019-05-20T03:22:06.541Z,998.80
2019-05-20T03:22:42.232Z,998.81
2019-05-20T03:23:17.813Z,998.77
2019-05-20T03:23:52.917Z,998.79
2019-05-20T03:24:28.293Z,998.79
2019-05-20T03:25:03.722Z,998.80
2019-05-20T03:25:39.038Z,998.78
2019-05-20T03:26:14.335Z,998.83
2019-05-20T03:26:49.443Z,998.83
2019-05-20T03:27:24.840Z,998.78
2019-05-20T03:28:00.027Z,998.82
2019-05-20T03:28:35.422Z,998.80
2019-05-20T03:29:10.502Z,998.81
2019-05-20T03:29:45.810Z,998.79
2019-05-20T03:30:21.327Z,998.83
2019-05-20T03:30:56.641Z,998.81
2019-05-20T03:31:31.950Z,998.80
2019-05-20T03:32:07.182Z,998.83
2019-05-20T03:32:42.457Z,998.80
2019-05-20T03:33:17.887Z,998.79
2019-05-20T03:33:53.342Z,998.80
2019-05-20T03:34:45.703Z,998.79
2019-05-20T03:35:03.831Z,998.81
2019-05-20T03:35:39.194Z,998.79
2019-05-20T03:36:14.556Z,998.76
2019-05-20T03:36:50.086Z,998.78
2019-05-20T03:37:25.257Z,998.78
2019-05-20T03:38:00.658Z,998.78
2019-05-20T03:38:35.735Z,998.76
2019-05-20T03:39:11.050Z,998.75
2019-05-20T03:39:46.343Z,998.80
2019-05-20T03:40:21.590Z,998.78
2019-05-20T03:40:57.181Z,998.82
2019-05-20T03:41:32.585Z,998.75
2019-05-20T03:42:08.082Z,998.76
2019-05-20T03:42:43.292Z,998.78
2019-05-20T03:43:18.767Z,998.80
2019-05-20T03:43:54.160Z,998.79
2019-05-20T03:44:29.554Z,998.79
2019-05-20T03:45:05.043Z,998.81
2019-05-20T03:45:40.262Z,998.81
2019-05-20T03:46:15.468Z,998.86
2019-05-20T03:46:50.837Z,998.82
2019-05-20T03:47:26.358Z,998.83
2019-05-20T03:48:01.658Z,998.83
2019-05-20T03:48:36.970Z,998.85
2019-05-20T03:49:12.360Z,998.84
2019-05-20T03:49:47.676Z,998.88
2019-05-20T03:50:23.046Z,998.89
2019-05-20T03:50:58.587Z,998.88
2019-05-20T03:51:33.864Z,998.89
2019-05-20T03:52:09.368Z,998.83
2019-05-20T03:52:44.762Z,998.88
2019-05-20T03:53:20.089Z,998.87
2019-05-20T03:53:55.272Z,998.87
2019-05-20T03:54:30.389Z,998.89
2019-05-20T03:55:05.676Z,998.87
2019-05-20T03:55:41.394Z,998.91
2019-05-20T03:56:16.603Z,998.87
2019-05-20T03:56:52.011Z,998.92
2019-05-20T03:57:27.301Z,998.90
2019-05-20T03:58:02.698Z,998.94
2019-05-20T03:58:37.883Z,998.91
2019-05-20T03:59:12.899Z,998.90
2019-05-20T03:59:48.260Z,998.94
2019-05-20T04:00:23.477Z,998.97
2019-05-20T04:00:58.952Z,998.91
2019-05-20T04:01:34.298Z,998.90
2019-05-20T04:02:09.323Z,998.93
2019-05-20T04:02:44.849Z,998.94
2019-05-20T04:03:19.924Z,998.96
2019-05-20T04:03:55.619Z,998.95
2019-05-20T04:04:31.199Z,998.94
2019-05-20T04:05:06.518Z,998.95
2019-05-20T04:05:41.811Z,998.96
2019-05-20T04:06:17.242Z,998.95
2019-05-20T04:06:52.535Z,998.94
2019-05-20T04:07:27.962Z,998.96
2019-05-20T04:08:03.441Z,998.98
2019-05-20T04:08:38.772Z,998.99
2019-05-20T04:09:14.022Z,998.98
2019-05-20T04:09:49.320Z,999.00
2019-05-20T04:10:24.604Z,999.02
2019-05-20T04:11:00.210Z,999.02
2019-05-20T04:11:35.385Z,999.06
2019-05-20T04:12:10.835Z,999.04
2019-05-20T04:12:46.342Z,999.06
2019-05-20T04:13:21.462Z,999.03
2019-05-20T04:13:56.823Z,999.10
2019-05-20T04:14:32.031Z,999.07
2019-05-20T04:15:07.213Z,999.06
2019-05-20T04:15:42.573Z,999.04
2019-05-20T04:16:17.934Z,999.09
2019-05-20T04:16:53.443Z,999.05
2019-05-20T04:17:29.164Z,999.06
2019-05-20T04:18:04.338Z,999.04
2019-05-20T04:18:39.686Z,999.06
2019-05-20T04:19:14.807Z,999.06
2019-05-20T04:19:50.083Z,999.06
2019-05-20T04:20:25.688Z,999.08
2019-05-20T04:21:00.863Z,999.08
2019-05-20T04:21:35.873Z,999.10
2019-05-20T04:22:11.452Z,999.08
2019-05-20T04:22:46.798Z,999.10
2019-05-20T04:23:22.087Z,999.12
2019-05-20T04:24:00.785Z,999.14
2019-05-20T04:24:32.570Z,999.13
2019-05-20T04:25:07.671Z,999.16
2019-05-20T04:25:42.954Z,999.16
2019-05-20T04:26:18.181Z,999.18
2019-05-20T04:26:53.461Z,999.18
2019-05-20T04:27:28.701Z,999.18
2019-05-20T04:28:03.905Z,999.16
2019-05-20T04:28:39.727Z,999.16
2019-05-20T04:29:14.995Z,999.19
2019-05-20T04:29:50.317Z,999.13
2019-05-20T04:30:25.622Z,999.15
2019-05-20T04:31:00.936Z,999.17
2019-05-20T04:31:36.497Z,999.17
2019-05-20T04:32:12.006Z,999.14
2019-05-20T04:32:47.419Z,999.14
2019-05-20T04:33:22.875Z,999.08
2019-05-20T04:33:58.168Z,999.10
2019-05-20T04:34:33.466Z,999.08
2019-05-20T04:35:21.568Z,999.07
2019-05-20T04:35:43.897Z,999.11
2019-05-20T04:36:19.471Z,999.11
2019-05-20T04:36:54.589Z,999.11
2019-05-20T04:37:30.073Z,999.11
2019-05-20T04:38:05.896Z,999.09
2019-05-20T04:38:41.282Z,999.09
2019-05-20T04:39:16.807Z,999.11
2019-05-20T04:39:52.087Z,999.07
2019-05-20T04:40:27.491Z,999.09
2019-05-20T04:41:03.066Z,999.06
2019-05-20T04:41:38.371Z,999.03
2019-05-20T04:42:13.640Z,999.05
2019-05-20T04:42:49.078Z,999.02
2019-05-20T04:43:24.346Z,999.02
2019-05-20T04:43:59.746Z,998.99
2019-05-20T04:44:35.264Z,999.00
2019-05-20T04:45:10.669Z,998.97
2019-05-20T04:45:46.044Z,998.96
2019-05-20T04:46:21.256Z,998.97
2019-05-20T04:46:58.029Z,998.97
2019-05-20T04:47:32.094Z,998.94
2019-05-20T04:48:07.369Z,998.97
2019-05-20T04:48:42.892Z,998.94
2019-05-20T04:49:18.266Z,998.92
2019-05-20T04:49:53.388Z,998.94
2019-05-20T04:50:28.575Z,998.94
2019-05-20T04:51:04.008Z,998.90
2019-05-20T04:51:39.087Z,998.92
2019-05-20T04:52:14.508Z,998.93
2019-05-20T04:52:49.754Z,998.92
2019-05-20T04:53:25.164Z,998.92
2019-05-20T04:54:00.680Z,998.91
2019-05-20T04:54:36.215Z,998.99
2019-05-20T04:55:11.515Z,999.01
2019-05-20T04:55:46.835Z,999.00
2019-05-20T04:56:22.320Z,999.06
2019-05-20T04:56:57.534Z,999.07
2019-05-20T04:57:32.863Z,999.10
2019-05-20T04:58:08.635Z,999.13
2019-05-20T04:58:43.898Z,999.14
2019-05-20T04:59:19.314Z,999.13
2019-05-20T04:59:54.496Z,999.16
2019-05-20T05:00:29.801Z,999.15
2019-05-20T05:01:05.203Z,999.16
2019-05-20T05:01:40.699Z,999.21
2019-05-20T05:02:16.292Z,999.21
2019-05-20T05:02:51.631Z,999.19
2019-05-20T05:03:26.819Z,999.21
2019-05-20T05:04:02.150Z,999.18
2019-05-20T05:04:37.345Z,999.21
2019-05-20T05:05:12.849Z,999.19
2019-05-20T05:05:48.140Z,999.24
2019-05-20T05:06:23.667Z,999.26
2019-05-20T05:06:58.869Z,999.23
2019-05-20T05:07:34.200Z,999.26
2019-05-20T05:08:09.695Z,999.28
2019-05-20T05:08:44.918Z,999.28
2019-05-20T05:09:20.328Z,999.30
2019-05-20T05:09:55.850Z,999.32
2019-05-20T05:10:31.133Z,999.31
2019-05-20T05:11:06.448Z,999.33
2019-05-20T05:11:41.632Z,999.33
2019-05-20T05:12:16.888Z,999.33
2019-05-20T05:12:52.162Z,999.33
2019-05-20T05:13:27.478Z,999.31
2019-05-20T05:14:03.062Z,999.33
2019-05-20T05:14:38.476Z,999.33
2019-05-20T05:15:13.656Z,999.27
2019-05-20T05:15:49.074Z,999.30
2019-05-20T05:16:24.270Z,999.29
2019-05-20T05:16:59.484Z,999.26
2019-05-20T05:17:35.677Z,999.23
2019-05-20T05:18:11.102Z,999.25
2019-05-20T05:18:46.195Z,999.28
2019-05-20T05:19:21.503Z,999.27
2019-05-20T05:19:56.799Z,999.23
2019-05-20T05:20:31.903Z,999.21
2019-05-20T05:21:07.218Z,999.23
2019-05-20T05:21:42.632Z,999.23
2019-05-20T05:22:17.709Z,999.25
2019-05-20T05:22:53.256Z,999.22
2019-05-20T05:23:28.750Z,999.22
2019-05-20T05:24:04.164Z,999.21
2019-05-20T05:24:39.468Z,999.24
2019-05-20T05:25:15.105Z,999.23
2019-05-20T05:25:50.710Z,999.26
2019-05-20T05:26:26.368Z,999.27
2019-05-20T05:27:01.553Z,999.26
2019-05-20T05:27:37.000Z,999.26
2019-05-20T05:28:12.576Z,999.24
2019-05-20T05:28:48.105Z,999.27
2019-05-20T05:29:23.194Z,999.27
2019-05-20T05:29:58.623Z,999.27
2019-05-20T05:30:33.915Z,999.29
2019-05-20T05:31:09.144Z,999.28
2019-05-20T05:31:44.633Z,999.29
2019-05-20T05:32:20.203Z,999.30
2019-05-20T05:32:55.802Z,999.26
2019-05-20T05:33:31.215Z,999.29
2019-05-20T05:34:06.401Z,999.32
2019-05-20T05:34:42.045Z,999.30
2019-05-20T05:35:17.746Z,999.31
2019-05-20T05:35:53.833Z,999.32
2019-05-20T05:36:28.948Z,999.30
2019-05-20T05:37:04.372Z,999.29
2019-05-20T05:37:39.912Z,999.29
2019-05-20T05:38:15.176Z,999.33
2019-05-20T05:38:50.418Z,999.28
2019-05-20T05:39:25.837Z,999.28
2019-05-20T05:40:01.252Z,999.28
2019-05-20T05:40:36.643Z,999.29
2019-05-20T05:41:12.233Z,999.28
2019-05-20T05:41:47.441Z,999.28
2019-05-20T05:42:22.863Z,999.30
2019-05-20T05:42:58.182Z,999.30
2019-05-20T05:43:33.402Z,999.31
2019-05-20T05:44:08.627Z,999.30
2019-05-20T05:44:44.009Z,999.33
2019-05-20T05:45:19.531Z,999.30
2019-05-20T05:45:54.627Z,999.31
2019-05-20T05:46:30.154Z,999.35
2019-05-20T05:47:05.459Z,999.33
2019-05-20T05:47:40.888Z,999.32
2019-05-20T05:48:16.196Z,999.33
2019-05-20T05:48:51.417Z,999.30
2019-05-20T05:49:26.702Z,999.32
2019-05-20T05:50:02.620Z,999.32
2019-05-20T05:50:37.815Z,999.35
2019-05-20T05:51:13.047Z,999.34
2019-05-20T05:51:48.537Z,999.37
2019-05-20T05:52:24.005Z,999.37
2019-05-20T05:52:59.290Z,999.37
2019-05-20T05:53:34.615Z,999.40
2019-05-20T05:54:10.330Z,999.41
2019-05-20T05:54:45.656Z,999.40
2019-05-20T05:55:21.045Z,999.42
2019-05-20T05:55:56.432Z,999.42
2019-05-20T05:56:31.884Z,999.41
2019-05-20T05:57:07.313Z,999.38
2019-05-20T05:57:42.570Z,999.40
2019-05-20T05:58:17.948Z,999.40
2019-05-20T05:58:53.341Z,999.40
2019-05-20T05:59:28.859Z,999.39
2019-05-20T06:00:04.166Z,999.39
2019-05-20T06:00:39.688Z,999.39
2019-05-20T06:01:14.775Z,999.35
2019-05-20T06:01:50.180Z,999.42
2019-05-20T06:02:25.497Z,999.35
2019-05-20T06:03:00.914Z,999.34
2019-05-20T06:03:36.396Z,999.35
2019-05-20T06:04:11.621Z,999.37
2019-05-20T06:04:47.012Z,999.35
2019-05-20T06:05:22.469Z,999.32
2019-05-20T06:06:11.326Z,999.33
2019-05-20T06:06:33.486Z,999.32
2019-05-20T06:07:08.660Z,999.33
2019-05-20T06:07:44.305Z,999.34
2019-05-20T06:08:19.814Z,999.33
2019-05-20T06:08:55.527Z,999.32
2019-05-20T06:09:31.117Z,999.34
2019-05-20T06:10:06.255Z,999.34
2019-05-20T06:10:41.630Z,999.35
2019-05-20T06:11:16.973Z,999.34
2019-05-20T06:11:52.249Z,999.31
2019-05-20T06:12:27.683Z,999.34
2019-05-20T06:13:02.950Z,999.34
2019-05-20T06:13:38.356Z,999.32
2019-05-20T06:14:14.023Z,999.33
2019-05-20T06:14:49.422Z,999.37
2019-05-20T06:15:24.711Z,999.35
2019-05-20T06:16:00.062Z,999.38
2019-05-20T06:16:36.905Z,999.37
2019-05-20T06:17:10.379Z,999.39
2019-05-20T06:17:45.608Z,999.39
2019-05-20T06:18:20.942Z,999.39
2019-05-20T06:18:56.347Z,999.37
2019-05-20T06:19:31.569Z,999.39
2019-05-20T06:20:06.965Z,999.44
2019-05-20T06:20:42.358Z,999.42
2019-05-20T06:21:17.558Z,999.44
2019-05-20T06:21:53.082Z,999.41
2019-05-20T06:22:28.410Z,999.40
2019-05-20T06:23:03.931Z,999.40
2019-05-20T06:23:39.032Z,999.42
2019-05-20T06:24:14.522Z,999.41
2019-05-20T06:24:49.722Z,999.43
2019-05-20T06:25:25.081Z,999.46
2019-05-20T06:26:00.634Z,999.48
2019-05-20T06:26:36.188Z,999.43
2019-05-20T06:27:11.578Z,999.43
2019-05-20T06:27:46.805Z,999.46
2019-05-20T06:28:22.103Z,999.48
2019-05-20T06:28:57.829Z,999.49
2019-05-20T06:29:33.241Z,999.49
2019-05-20T06:30:08.524Z,999.47
2019-05-20T06:30:43.965Z,999.51
2019-05-20T06:31:19.243Z,999.50
2019-05-20T06:31:54.564Z,999.50
2019-05-20T06:32:29.670Z,999.52
2019-05-20T06:33:04.990Z,999.54
2019-05-20T06:33:40.086Z,999.55
2019-05-20T06:34:15.517Z,999.55
2019-05-20T06:34:51.390Z,999.53
2019-05-20T06:35:26.807Z,999.58
2019-05-20T06:36:02.202Z,999.56
2019-05-20T06:36:37.394Z,999.61
2019-05-20T06:37:12.876Z,999.59
2019-05-20T06:37:48.323Z,999.60
2019-05-20T06:38:23.605Z,999.61
2019-05-20T06:38:59.148Z,999.57
2019-05-20T06:39:34.354Z,999.62
2019-05-20T06:40:09.488Z,999.62
2019-05-20T06:40:44.776Z,999.62
2019-05-20T06:41:20.540Z,999.61
2019-05-20T06:41:55.677Z,999.65
2019-05-20T06:42:31.133Z,999.63
2019-05-20T06:43:06.333Z,999.68
2019-05-20T06:43:41.754Z,999.63
2019-05-20T06:44:17.039Z,999.62
2019-05-20T06:44:56.506Z,999.66
2019-05-20T06:45:27.965Z,999.60
2019-05-20T06:46:03.386Z,999.62
2019-05-20T06:46:38.670Z,999.58
2019-05-20T06:47:14.687Z,999.61
2019-05-20T06:47:50.211Z,999.57
2019-05-20T06:48:25.529Z,999.60
2019-05-20T06:49:00.833Z,999.60
2019-05-20T06:49:36.163Z,999.63
2019-05-20T06:50:11.582Z,999.65
2019-05-20T06:50:46.913Z,999.67
2019-05-20T06:51:22.205Z,999.65
2019-05-20T06:51:57.652Z,999.65
2019-05-20T06:52:35.732Z,999.71
2019-05-20T06:53:08.803Z,999.72
2019-05-20T06:53:44.224Z,999.71
2019-05-20T06:54:19.819Z,999.72
2019-05-20T06:54:55.137Z,999.75
2019-05-20T06:55:30.815Z,999.71
2019-05-20T06:56:06.144Z,999.75
2019-05-20T06:56:41.481Z,999.73
2019-05-20T06:57:16.946Z,999.75
2019-05-20T06:57:52.245Z,999.71
2019-05-20T06:58:27.568Z,999.76
2019-05-20T06:59:03.043Z,999.72
2019-05-20T06:59:38.189Z,999.76
2019-05-20T07:00:13.378Z,999.70
2019-05-20T07:00:48.688Z,999.69
2019-05-20T07:01:24.284Z,999.71
2019-05-20T07:01:59.805Z,999.76
2019-05-20T07:02:35.106Z,999.77
2019-05-20T07:03:10.529Z,999.75
2019-05-20T07:03:45.913Z,999.78
2019-05-20T07:04:21.465Z,999.76
2019-05-20T07:04:56.967Z,999.78
2019-05-20T07:05:32.395Z,999.84
2019-05-20T07:06:07.793Z,999.80
2019-05-20T07:06:47.064Z,999.76
2019-05-20T07:07:21.211Z,999.81
2019-05-20T07:07:54.156Z,999.78
2019-05-20T07:08:29.349Z,999.77
2019-05-20T07:09:04.393Z,999.80
2019-05-20T07:09:40.168Z,999.79
2019-05-20T07:10:15.506Z,999.82
2019-05-20T07:10:50.887Z,999.80
2019-05-20T07:11:26.664Z,999.84
2019-05-20T07:12:01.957Z,999.83
2019-05-20T07:12:41.240Z,999.84
2019-05-20T07:13:15.972Z,999.85
2019-05-20T07:13:48.382Z,999.89
2019-05-20T07:14:23.863Z,999.83
2019-05-20T07:14:59.418Z,999.84
2019-05-20T07:15:34.819Z,999.88
2019-05-20T07:16:10.345Z,999.92
2019-05-20T07:16:45.690Z,999.89
2019-05-20T07:17:21.069Z,999.94
2019-05-20T07:17:56.448Z,999.94
2019-05-20T07:18:32.163Z,999.96
2019-05-20T07:19:07.756Z,999.97
2019-05-20T07:19:43.067Z,999.99
2019-05-20T07:20:18.556Z,1000.00
2019-05-20T07:20:54.015Z,999.99
2019-05-20T07:21:29.290Z,1000.01